Have a Safe July 4th! 

Flight Track Log - Related Links

Times and Time Zones

All times are in EDT time to prevent confusion due to time zone crossing. See the UAL4543 flight status page for this flight to view local times or setup timezone preferences in your user account.

Time Position Orientation Groundspeed Altitude Reporting Facility
EDT Latitude Longitude Course Direction KTS MPH feet Rate Location/Type
Fri 08:28:47 PM 40.6667 -74.1833 288° West 165 190 800  Level New York TRACON
Fri 08:29:47 PM 40.6167 -74.2167 207° Southwest 213 245 2,200 1,400 Climbing New York TRACON
Fri 08:30:47 PM 40.5667 -74.2667 217° Southwest 256 295 3,600 1,700 Climbing New York TRACON
Fri 08:31:47 PM 40.6000 -74.3667 294° West 274 315 5,600 2,225 Climbing New York TRACON
Fri 08:33:45 PM 40.6575 -74.5433 293° West 291 335 10,200 1,733 Climbing New York Center
Fri 08:34:00 PM 40.8782 -75.0129 288° West  Level FlightAware Approximate
Fri 08:34:47 PM 40.6919 -74.6439 294° West 291 335 10,800  Level New York Center
Fri 08:35:47 PM 40.7314 -74.7667 293° West 344 396 11,800 1,068 Climbing New York Center
Fri 08:36:45 PM 40.7711 -74.8867 294° West 356 410 12,900 1,150 Climbing New York Center
Fri 08:37:47 PM 40.8217 -74.9883 303° West 368 423 14,100 1,190 Climbing New York Center
Fri 08:38:46 PM 40.8825 -75.0964 307° West 373 429 15,300 1,250 Climbing New York Center
Fri 08:39:47 PM 40.8978 -75.2458 278° West 367 422 16,600 1,119 Climbing New York Center
Fri 08:40:44 PM 40.8714 -75.3839 256° West 365 420 17,500 706 Climbing New York Center
Fri 08:41:46 PM 40.8408 -75.5244 254° West 394 453 18,000 738 Climbing New York Center
Fri 08:42:46 PM 40.8058 -75.6675 252° West 406 467 19,000 942 Climbing New York Center
Fri 08:43:47 PM 40.7736 -75.7939 251° West 412 474 19,900 893 Climbing New York Center
Fri 08:44:47 PM 40.7381 -75.9419 252° West 417 480 20,800 966 Climbing New York Center
Fri 08:45:45 PM 40.6975 -76.1003 251° West 417 480 21,800 1,059 Climbing New York Center
Fri 08:46:46 PM 40.6678 -76.2514 256° West 417 480 22,900 1,100 Climbing New York Center
Fri 08:47:45 PM 40.6858 -76.4006 279° West 408 470 24,000 1,050 Climbing New York Center
Fri 08:48:46 PM 40.7083 -76.5394 282° West 400 460 25,000 1,000 Climbing New York Center
Fri 08:49:45 PM 40.7300 -76.6892 281° West 406 467 26,000 950 Climbing New York Center
Fri 08:50:46 PM 40.7519 -76.8333 281° West 411 473 26,900 885 Climbing New York Center
Fri 08:51:47 PM 40.7736 -76.9781 281° West 411 473 27,800 958 Climbing New York Center
Fri 08:52:45 PM 40.7933 -77.1169 281° West 405 466 28,800 966 Climbing New York Center
Fri 08:53:45 PM 40.8128 -77.2583 280° West 400 460 29,700 957 Climbing New York Center
Fri 08:56:12 PM 40.8622 -77.6097 281° West 395 455 32,100 928 Climbing Cleveland Center
Fri 08:57:12 PM 40.8825 -77.7517 281° West 395 455 32,900 750 Climbing Cleveland Center
Fri 08:58:12 PM 40.9008 -77.8992 279° West 400 460 33,600 550 Climbing Cleveland Center
Fri 08:59:12 PM 40.9231 -78.0522 281° West 411 473 34,000 200 Climbing Cleveland Center
Fri 09:00:12 PM 40.9431 -78.2081 280° West 423 487 34,000 150 Level Cleveland Center
Fri 09:01:12 PM 40.9631 -78.3669 280° West 437 503 34,300 500 Climbing Cleveland Center
Fri 09:02:12 PM 40.9825 -78.5231 279° West 442 509 35,000 350 Climbing Cleveland Center
Fri 09:03:12 PM 40.9997 -78.6764 279° West 437 503 35,000 450 Level Cleveland Center
Fri 09:04:12 PM 41.0169 -78.8275 279° West 432 497 35,900 500 Climbing Cleveland Center
Fri 09:05:12 PM 41.0358 -78.9783 279° West 426 490 36,000 50 Climbing Cleveland Center
Fri 09:06:12 PM 41.0544 -79.1292 279° West 426 490 36,000  Level Cleveland Center
Fri 09:07:12 PM 41.0708 -79.2803 278° West 426 490 36,000  Level Cleveland Center
Fri 09:08:12 PM 41.0869 -79.4289 278° West 426 490 36,000  Level Cleveland Center
Fri 09:09:12 PM 41.1050 -79.5800 279° West 426 490 36,000  Level Cleveland Center
Fri 09:10:12 PM 41.1231 -79.7314 279° West 426 490 36,000  Level Cleveland Center
Fri 09:11:12 PM 41.1344 -79.8775 276° West 426 490 36,000  Level Cleveland Center
Fri 09:12:12 PM 41.1542 -80.0400 279° West 420 483 36,000  Level Cleveland Center
Fri 09:13:12 PM 41.1714 -80.1914 279° West 420 483 36,000  Level Cleveland Center
Fri 09:14:12 PM 41.1864 -80.3458 277° West 420 483 36,000  Level Cleveland Center
Fri 09:15:12 PM 41.2011 -80.5031 277° West 428 493 36,000  Level Cleveland Center
Fri 09:16:12 PM 41.2158 -80.6578 277° West 428 493 36,000  Level Cleveland Center
Fri 09:17:12 PM 41.2303 -80.7958 278° West 428 493 36,000  Level Cleveland Center
Fri 09:18:12 PM 41.2464 -80.9531 278° West 428 493 36,000  Level Cleveland Center
Fri 09:19:12 PM 41.2606 -81.1106 277° West 428 493 36,000  Level Cleveland Center
Fri 09:20:12 PM 41.2764 -81.2656 278° West 429 494 36,000  Level Cleveland Center
Fri 09:21:12 PM 41.2958 -81.4372 279° West 429 494 36,000  Level Cleveland Center
Fri 09:22:12 PM 41.3092 -81.5975 276° West 435 501 36,000  Level Cleveland Center
Fri 09:23:12 PM 41.3244 -81.7556 277° West 435 501 36,000  Level Cleveland Center
Fri 09:24:12 PM 41.3394 -81.9161 277° West 435 501 36,000  Level Cleveland Center
Fri 09:25:12 PM 41.3519 -82.0767 276° West 440 506 36,000  Level Cleveland Center
Fri 09:26:12 PM 41.3603 -82.2236 274° West 448 516 36,000  Level Cleveland Center
Fri 09:27:12 PM 41.3703 -82.3872 275° West 448 516 36,000  Level Cleveland Center
Fri 09:28:12 PM 41.3803 -82.5453 275° West 443 510 36,000  Level Cleveland Center
Fri 09:29:12 PM 41.3878 -82.7086 274° West 448 516 36,000  Level Cleveland Center
Fri 09:30:12 PM 41.3972 -82.8722 274° West 443 510 36,000  Level Cleveland Center
Fri 09:31:12 PM 41.4058 -83.0497 274° West 443 510 36,000  Level Cleveland Center
Fri 09:32:12 PM 41.4111 -83.1914 273° West 438 504 36,000  Level Cleveland Center
Fri 09:33:12 PM 41.4197 -83.3550 274° West 444 511 36,000  Level Cleveland Center
Fri 09:34:12 PM 41.4283 -83.5189 274° West 444 511 36,000  Level Cleveland Center
Fri 09:35:12 PM 41.4386 -83.6828 275° West 444 511 36,000  Level Cleveland Center
Fri 09:36:12 PM 41.4464 -83.8439 274° West 444 511 36,000  Level Cleveland Center
Fri 09:37:12 PM 41.4519 -84.0131 273° West 444 511 36,000  Level Cleveland Center
Fri 09:39:22 PM 41.4697 -84.3653 274° West 452 520 36,000  Level Chicago Center
Fri 09:40:24 PM 41.4758 -84.5319 273° West 453 521 36,000  Level Chicago Center
Fri 09:41:25 PM 41.4842 -84.7328 273° West 453 521 36,000  Level Chicago Center
Fri 09:42:27 PM 41.4900 -84.9000 273° West 453 521 36,000  Level Chicago Center
Fri 09:43:29 PM 41.4958 -85.0689 273° West 455 524 36,000  Level Chicago Center
Fri 09:44:31 PM 41.5011 -85.2394 272° West 456 525 36,000  Level Chicago Center
Fri 09:45:32 PM 41.5056 -85.4142 272° West 459 528 36,000  Level Chicago Center
Fri 09:46:34 PM 41.5119 -85.5889 273° West 460 529 36,000  Level Chicago Center
Fri 09:47:36 PM 41.5169 -85.7606 272° West 461 531 36,000  Level Chicago Center
Fri 09:48:37 PM 41.5214 -85.9314 272° West 462 532 36,000  Level Chicago Center
Fri 09:49:39 PM 41.5267 -86.1019 272° West 462 532 36,000  Level Chicago Center
Fri 09:50:41 PM 41.5292 -86.2703 271° West 457 526 36,000  Level Chicago Center
Fri 09:51:42 PM 41.5311 -86.4325 271° West 443 510 36,000  Level Chicago Center
Fri 09:52:44 PM 41.5353 -86.6297 272° West 444 511 36,000  Level Chicago Center
Fri 09:53:45 PM 41.5361 -86.7978 270° West 446 513 36,000  Level Chicago Center
Fri 09:54:47 PM 41.5392 -86.9606 271° West 442 509 36,000  Level Chicago Center
Fri 09:55:49 PM 41.5394 -87.1244 270° West 444 511 36,000  Level Chicago Center
Fri 09:56:50 PM 41.5417 -87.2897 271° West 447 514 36,000  Level Chicago Center
Fri 09:57:52 PM 41.5431 -87.4547 271° West 447 514 36,000  Level Chicago Center
Fri 09:58:54 PM 41.5450 -87.6533 271° West 449 517 36,000  Level Chicago Center
Fri 09:59:55 PM 41.5453 -87.8181 270° West 451 519 36,000  Level Chicago Center
Fri 10:00:57 PM 41.5453 -87.9811 270° West 452 520 36,000  Level Chicago Center
Fri 10:01:59 PM 41.5469 -88.1419 271° West 450 518 36,000  Level Chicago Center
Fri 10:03:00 PM 41.5461 -88.3061 270° West 452 520 36,000  Level Chicago Center
Fri 10:04:02 PM 41.5469 -88.5050 270° West 451 519 36,000  Level Chicago Center
Fri 10:05:03 PM 41.5472 -88.6725 270° West 454 522 36,000  Level Chicago Center
Fri 10:06:05 PM 41.5478 -88.8394 270° West 453 521 36,000  Level Chicago Center
Fri 10:07:06 PM 41.5472 -89.0078 270° West 455 524 36,000  Level Chicago Center
Fri 10:08:08 PM 41.5478 -89.1772 270° West 459 528 36,000  Level Chicago Center
Fri 10:09:09 PM 41.5489 -89.3472 271° West 458 527 36,000  Level Chicago Center
Fri 10:10:11 PM 41.5486 -89.5511 270° West 460 529 36,000  Level Chicago Center
Fri 10:11:12 PM 41.5469 -89.6950 269° West 458 527 36,000  Level Chicago Center
Fri 10:12:14 PM 41.5458 -89.8650 270° West 460 529 36,000  Level Chicago Center
Fri 10:13:15 PM 41.5450 -90.0683 270° West 461 531 36,000  Level Chicago Center
Fri 10:14:16 PM 41.5428 -90.2383 269° West 461 531 36,000  Level Chicago Center
Fri 10:15:18 PM 41.5400 -90.4133 269° West 470 541 36,000  Level Chicago Center
Fri 10:16:19 PM 41.5378 -90.5842 269° West 465 535 36,000  Level Chicago Center
Fri 10:17:21 PM 41.5347 -90.7722 269° West 466 536 36,000  Level Chicago Center
Fri 10:18:22 PM 41.5322 -90.9442 269° West 466 536 36,000 -261 Level Chicago Center
Fri 10:20:25 PM 41.5269 -91.2858 269° West 462 532 35,200 -876 Descending Chicago Center
Fri 10:21:27 PM 41.5231 -91.4558 268° West 460 529 33,300 -2,195 Descending Chicago Center
Fri 10:22:28 PM 41.5197 -91.6300 269° West 467 537 30,700 -2,557 Descending Chicago Center
Fri 10:23:29 PM 41.5222 -91.8044 271° West 472 543 28,100 -2,732 Descending Chicago Center
Fri 10:24:31 PM 41.5250 -92.0133 271° West 473 544 25,100 -2,683 Descending Chicago Center
Fri 10:25:32 PM 41.5275 -92.1872 271° West 472 543 22,600 -2,439 Descending Chicago Center
Fri 10:26:34 PM 41.5286 -92.3542 271° West 457 526 20,100 -2,439 Descending Chicago Center
Fri 10:27:35 PM 41.5306 -92.5186 271° West 448 516 17,600 -2,311 Descending Chicago Center
Fri 10:28:36 PM 41.5300 -92.6750 270° West 428 493 15,400 -1,561 Descending Chicago Center
Fri 10:29:38 PM 41.5072 -92.8317 259° West 408 470 14,400 -1,438 Descending Chicago Center
Fri 10:30:37 PM 41.4847 -92.9869 259° West 396 456 12,500 -1,700 Descending Minneapolis Center
Fri 10:31:38 PM 41.4667 -93.1203 260° West 363 418 11,000 -1,574 Descending Minneapolis Center
Fri 10:32:39 PM 41.4500 -93.2314 259° West 311 358 9,300 -1,967 Descending Minneapolis Center
Fri 10:33:40 PM 41.4333 -93.3322 258° West 282 325 7,000 -2,244 Descending Minneapolis Center
Fri 10:34:42 PM 41.4194 -93.4342 260° West 263 303 4,700 -1,659 Descending Minneapolis Center
Fri 10:35:43 PM 41.4372 -93.5167 286° West 233 268 3,600 -1,050 Descending Minneapolis Center
Fri 10:36:42 PM 41.4814 -93.5639 321° Northwest 207 238 2,600 -885 Descending Minneapolis Center
Fri 10:37:45 PM 41.5044 -93.6144 301° West 152 175 1,800 -762 Descending Minneapolis Center

Login

Don't have an account? Register now (free) for customized features, flight alerts, and more!